Time;durP1;ratioP1;P1;durP2;ratioP2;P2;SDS_P1;SDS_P2;PMS_P1;PMS_P2;Temp;Humidity;BMP_temperature;BMP_pressure;BME280_temperature;BME280_humidity;BME280_pressure;Samples;Min_cycle;Max_cycle;Signal;HPM_P1;HPM_P2
2022/11/04 00:00:31;;;;;;;13.80;9.03;;;;;;;;;;739659;189;919418;-70
2022/11/04 00:02:57;;;;;;;19.43;10.67;;;;;;;;;;740125;190;859158;-70
2022/11/04 00:05:23;;;;;;;17.23;10.20;;;;;;;;;;739919;189;629559;-70
2022/11/04 00:12:23;;;;;;;24.27;12.27;;;;;;;;;;741120;189;626934;-70
2022/11/04 00:12:46;;;;;;;19.20;8.53;;;;;;;;;;748459;189;625107;-72
2022/11/04 00:17:44;;;;;;;13.32;8.02;;;;;;;;;;735957;189;920558;-69
2022/11/04 00:30:16;;;;;;;17.10;9.73;;;;;;;;;;738374;189;817113;-70
2022/11/04 00:35:14;;;;;;;13.20;6.97;;;;;;;;;;746393;187;917124;-69
2022/11/04 00:37:40;;;;;;;16.57;9.83;;;;;;;;;;742354;187;817042;-70
2022/11/04 00:40:06;;;;;;;17.93;10.60;;;;;;;;;;737143;189;819346;-69
2022/11/04 00:42:32;;;;;;;18.10;9.47;;;;;;;;;;742437;189;909380;-70
2022/11/04 00:44:58;;;;;;;16.83;9.17;;;;;;;;;;737678;189;918875;-70
2022/11/04 00:47:23;;;;;;;16.53;9.87;;;;;;;;;;735577;189;915732;-70
2022/11/04 00:49:49;;;;;;;19.20;8.83;;;;;;;;;;741527;188;913554;-70
2022/11/04 00:52:15;;;;;;;15.23;9.10;;;;;;;;;;736057;189;917975;-70
2022/11/04 00:54:41;;;;;;;20.43;10.70;;;;;;;;;;734492;189;918414;-70
2022/11/04 00:57:08;;;;;;;17.70;9.73;;;;;;;;;;737575;189;919358;-69
2022/11/04 00:59:34;;;;;;;13.90;8.67;;;;;;;;;;751521;185;915267;-70
2022/11/04 01:02:00;;;;;;;14.03;8.40;;;;;;;;;;736311;188;920401;-69
2022/11/04 01:04:26;;;;;;;16.57;8.73;;;;;;;;;;737697;189;917614;-70
2022/11/04 01:06:52;;;;;;;19.97;9.37;;;;;;;;;;744521;188;814725;-70
2022/11/04 01:09:17;;;;;;;17.50;9.00;;;;;;;;;;736350;189;920927;-70
2022/11/04 01:11:43;;;;;;;19.57;9.27;;;;;;;;;;735146;189;921501;-69
2022/11/04 01:14:09;;;;;;;20.33;9.37;;;;;;;;;;739357;189;915181;-70
2022/11/04 01:16:35;;;;;;;19.00;10.17;;;;;;;;;;735239;189;919891;-70
2022/11/04 01:19:01;;;;;;;17.90;9.87;;;;;;;;;;734932;190;920209;-71
2022/11/04 01:21:27;;;;;;;18.15;9.05;;;;;;;;;;742315;189;918698;-67
2022/11/04 01:23:53;;;;;;;17.77;9.90;;;;;;;;;;743602;186;920327;-68
2022/11/04 01:26:19;;;;;;;18.87;9.57;;;;;;;;;;738866;188;919031;-68
2022/11/04 01:28:45;;;;;;;16.93;9.90;;;;;;;;;;735326;189;908440;-67
2022/11/04 01:31:11;;;;;;;15.93;9.37;;;;;;;;;;740353;189;919336;-68
2022/11/04 01:33:37;;;;;;;16.53;9.13;;;;;;;;;;735092;189;916584;-68
2022/11/04 01:36:03;;;;;;;17.60;9.70;;;;;;;;;;737951;188;1021213;-68
2022/11/04 01:38:28;;;;;;;15.17;9.17;;;;;;;;;;740397;189;916583;-70
2022/11/04 01:40:54;;;;;;;16.50;8.90;;;;;;;;;;735094;189;918452;-68
2022/11/04 01:43:20;;;;;;;14.77;10.00;;;;;;;;;;733884;189;918702;-69
2022/11/04 01:45:46;;;;;;;19.10;9.60;;;;;;;;;;740593;189;920513;-69
2022/11/04 01:48:12;;;;;;;17.70;10.43;;;;;;;;;;743286;188;918790;-68
2022/11/04 01:50:38;;;;;;;15.07;9.97;;;;;;;;;;739623;186;920757;-69
2022/11/04 01:53:03;;;;;;;21.20;10.73;;;;;;;;;;738353;188;919910;-68
2022/11/04 01:55:29;;;;;;;18.73;10.87;;;;;;;;;;742382;188;918698;-68
2022/11/04 01:57:55;;;;;;;17.43;9.50;;;;;;;;;;735921;189;919235;-68
2022/11/04 02:00:21;;;;;;;18.20;10.17;;;;;;;;;;738426;189;918304;-69
2022/11/04 02:02:49;;;;;;;17.20;10.37;;;;;;;;;;740316;190;919844;-69
2022/11/04 02:05:14;;;;;;;14.03;9.13;;;;;;;;;;736883;189;917582;-68
2022/11/04 02:07:40;;;;;;;13.93;8.33;;;;;;;;;;736569;189;921542;-67
2022/11/04 02:10:06;;;;;;;15.73;10.40;;;;;;;;;;744806;189;918471;-68
2022/11/04 02:15:04;;;;;;;15.37;9.10;;;;;;;;;;741068;188;817600;-69
2022/11/04 02:17:32;;;;;;;16.13;10.30;;;;;;;;;;737967;189;919740;-69
2022/11/04 02:19:58;;;;;;;19.23;9.87;;;;;;;;;;740113;189;916411;-70
2022/11/04 02:22:30;;;;;;;17.70;8.53;;;;;;;;;;735533;188;915566;-69
2022/11/04 02:25:07;;;;;;;20.13;10.07;;;;;;;;;;739067;189;918830;-68
2022/11/04 02:27:35;;;;;;;17.02;10.40;;;;;;;;;;736096;189;917179;-69
2022/11/04 02:30:09;;;;;;;15.37;9.17;;;;;;;;;;735432;190;918236;-69
2022/11/04 02:32:38;;;;;;;15.87;10.57;;;;;;;;;;741541;189;937323;-70
2022/11/04 02:35:06;;;;;;;19.77;10.57;;;;;;;;;;734295;189;916880;-69
2022/11/04 02:37:31;;;;;;;16.27;9.43;;;;;;;;;;737482;189;917536;-69
2022/11/04 02:40:04;;;;;;;15.30;9.10;;;;;;;;;;735140;191;919712;-68
2022/11/04 02:42:30;;;;;;;24.63;11.33;;;;;;;;;;740397;190;918560;-70
2022/11/04 02:45:00;;;;;;;15.00;8.90;;;;;;;;;;738335;189;918936;-70
2022/11/04 02:47:26;;;;;;;20.87;10.47;;;;;;;;;;739554;188;921000;-68
2022/11/04 02:49:53;;;;;;;24.03;10.00;;;;;;;;;;738034;188;918893;-69
2022/11/04 02:52:19;;;;;;;21.63;12.50;;;;;;;;;;742449;190;919031;-69
2022/11/04 02:54:45;;;;;;;19.13;10.27;;;;;;;;;;739457;189;914278;-69
2022/11/04 02:57:11;;;;;;;23.13;9.87;;;;;;;;;;737074;189;900105;-70
2022/11/04 02:59:37;;;;;;;18.23;8.37;;;;;;;;;;746932;187;918688;-69
2022/11/04 03:02:03;;;;;;;16.37;9.30;;;;;;;;;;737298;188;815483;-70
2022/11/04 03:04:30;;;;;;;17.73;10.17;;;;;;;;;;742583;188;918813;-69
2022/11/04 03:06:56;;;;;;;14.52;8.68;;;;;;;;;;734129;190;919050;-69
2022/11/04 03:09:22;;;;;;;14.20;9.37;;;;;;;;;;739917;188;917142;-70
2022/11/04 03:11:48;;;;;;;17.10;11.47;;;;;;;;;;739827;188;915428;-70
2022/11/04 03:14:14;;;;;;;16.30;9.00;;;;;;;;;;735627;190;920240;-70
2022/11/04 03:16:52;;;;;;;12.67;8.37;;;;;;;;;;740329;189;919233;-69
2022/11/04 03:19:19;;;;;;;16.50;8.30;;;;;;;;;;739581;190;918580;-71
2022/11/04 03:21:45;;;;;;;18.60;9.47;;;;;;;;;;742782;188;919363;-70
2022/11/04 03:24:11;;;;;;;12.17;7.70;;;;;;;;;;731268;189;918974;-69
2022/11/04 03:26:39;;;;;;;13.00;8.90;;;;;;;;;;742149;190;818143;-69
2022/11/04 03:29:10;;;;;;;19.37;11.30;;;;;;;;;;731920;189;918686;-70
2022/11/04 03:31:37;;;;;;;15.37;9.63;;;;;;;;;;738416;189;918911;-70
2022/11/04 03:34:03;;;;;;;22.23;10.13;;;;;;;;;;735485;189;917809;-70
2022/11/04 03:36:29;;;;;;;14.83;9.70;;;;;;;;;;741913;189;916102;-70
2022/11/04 03:38:54;;;;;;;12.80;8.43;;;;;;;;;;738302;189;919366;-69
2022/11/04 03:41:22;;;;;;;15.90;9.97;;;;;;;;;;736005;189;920153;-69
2022/11/04 03:43:48;;;;;;;16.37;9.03;;;;;;;;;;744581;188;916658;-69
2022/11/04 03:46:14;;;;;;;16.60;10.17;;;;;;;;;;738954;189;919420;-69
2022/11/04 03:48:40;;;;;;;18.93;9.50;;;;;;;;;;739950;188;1019350;-69
2022/11/04 03:51:05;;;;;;;20.03;9.77;;;;;;;;;;745440;189;917490;-70
2022/11/04 03:53:31;;;;;;;14.57;9.53;;;;;;;;;;741705;188;815794;-69
2022/11/04 03:56:03;;;;;;;14.50;9.40;;;;;;;;;;744927;188;621461;-70
2022/11/04 03:58:45;;;;;;;15.17;9.20;;;;;;;;;;732003;190;919259;-69
2022/11/04 04:01:17;;;;;;;16.30;9.47;;;;;;;;;;733656;187;917006;-69
2022/11/04 04:03:44;;;;;;;20.13;10.37;;;;;;;;;;743000;189;917184;-70
2022/11/04 04:06:10;;;;;;;21.00;12.00;;;;;;;;;;743670;186;918861;-69
2022/11/04 04:08:36;;;;;;;18.20;9.00;;;;;;;;;;738334;188;919505;-70
2022/11/04 04:11:21;;;;;;;17.17;9.97;;;;;;;;;;737257;187;920295;-70
2022/11/04 04:13:52;;;;;;;18.00;10.00;;;;;;;;;;740697;185;919147;-70
2022/11/04 04:16:24;;;;;;;18.13;10.53;;;;;;;;;;741554;189;925310;-71
2022/11/04 04:18:52;;;;;;;17.03;11.07;;;;;;;;;;746138;188;815054;-70
2022/11/04 04:21:18;;;;;;;17.67;9.87;;;;;;;;;;740286;186;1020145;-70
2022/11/04 04:28:49;;;;;;;18.37;11.13;;;;;;;;;;749577;185;918436;-69
2022/11/04 04:31:48;;;;;;;14.10;9.63;;;;;;;;;;740400;188;919331;-70
2022/11/04 04:33:43;;;;;;;20.73;10.87;;;;;;;;;;737615;188;915892;-70
2022/11/04 04:36:09;;;;;;;18.63;10.50;;;;;;;;;;742125;189;813686;-71
2022/11/04 04:46:12;;;;;;;20.73;11.50;;;;;;;;;;736664;188;1020313;-70
2022/11/04 04:48:37;;;;;;;16.23;10.53;;;;;;;;;;744583;189;918423;-70
2022/11/04 04:51:03;;;;;;;18.80;9.83;;;;;;;;;;734888;189;919327;-70
2022/11/04 04:53:29;;;;;;;17.67;11.30;;;;;;;;;;740055;189;902705;-70
2022/11/04 04:55:55;;;;;;;15.70;9.40;;;;;;;;;;740897;190;918136;-70
2022/11/04 04:58:21;;;;;;;18.30;11.63;;;;;;;;;;737213;190;916044;-70
2022/11/04 05:00:47;;;;;;;12.23;10.43;;;;;;;;;;737711;189;918217;-70
2022/11/04 05:03:12;;;;;;;17.67;9.97;;;;;;;;;;741058;189;912781;-70
2022/11/04 05:05:38;;;;;;;19.33;11.07;;;;;;;;;;737986;189;915823;-69
2022/11/04 05:08:05;;;;;;;20.60;10.30;;;;;;;;;;736819;188;918977;-70
2022/11/04 05:10:31;;;;;;;18.43;11.53;;;;;;;;;;734804;189;813720;-74
2022/11/04 05:15:29;;;;;;;21.17;11.80;;;;;;;;;;736458;189;917054;-69
2022/11/04 05:17:55;;;;;;;19.30;11.50;;;;;;;;;;739416;189;906951;-69
2022/11/04 05:20:20;;;;;;;18.17;11.20;;;;;;;;;;738295;189;900978;-69
2022/11/04 05:22:46;;;;;;;15.33;10.37;;;;;;;;;;739311;187;915339;-69
2022/11/04 05:25:13;;;;;;;17.77;10.97;;;;;;;;;;735950;189;919250;-69
2022/11/04 05:27:39;;;;;;;20.47;12.03;;;;;;;;;;736033;189;917172;-69
2022/11/04 05:30:05;;;;;;;17.08;10.30;;;;;;;;;;741843;189;816695;-69
2022/11/04 05:32:31;;;;;;;17.60;10.37;;;;;;;;;;738035;189;920379;-69
2022/11/04 05:34:57;;;;;;;18.12;10.68;;;;;;;;;;733824;189;1430497;-70
2022/11/04 05:37:23;;;;;;;17.90;11.20;;;;;;;;;;743475;189;807101;-69
2022/11/04 05:39:49;;;;;;;22.73;12.07;;;;;;;;;;738400;189;921294;-69
2022/11/04 05:42:15;;;;;;;20.90;11.23;;;;;;;;;;735262;189;818415;-69
2022/11/04 05:44:40;;;;;;;21.27;11.10;;;;;;;;;;740453;189;917758;-70
2022/11/04 05:47:06;;;;;;;18.23;11.40;;;;;;;;;;736929;189;918067;-70
2022/11/04 05:49:32;;;;;;;16.23;11.27;;;;;;;;;;739259;188;816328;-68
2022/11/04 05:51:58;;;;;;;20.20;10.80;;;;;;;;;;739073;189;912409;-69
2022/11/04 05:54:25;;;;;;;20.05;10.63;;;;;;;;;;742862;189;859112;-69
2022/11/04 05:56:50;;;;;;;21.00;11.80;;;;;;;;;;741478;189;917850;-70
2022/11/04 05:59:16;;;;;;;18.73;11.67;;;;;;;;;;742873;186;861110;-69
2022/11/04 06:01:42;;;;;;;21.13;10.90;;;;;;;;;;742355;189;713546;-70
2022/11/04 06:04:07;;;;;;;19.00;10.27;;;;;;;;;;742232;189;815876;-69
2022/11/04 06:06:33;;;;;;;20.13;11.20;;;;;;;;;;735096;189;919189;-69
2022/11/04 06:08:59;;;;;;;17.57;11.63;;;;;;;;;;740924;189;813225;-70
2022/11/04 06:11:25;;;;;;;14.90;10.60;;;;;;;;;;736793;188;920907;-70
2022/11/04 06:13:51;;;;;;;18.75;11.85;;;;;;;;;;733646;189;919265;-69
2022/11/04 06:16:17;;;;;;;14.60;10.50;;;;;;;;;;735023;189;917168;-71
2022/11/04 06:18:42;;;;;;;16.93;10.60;;;;;;;;;;742885;187;915721;-69
2022/11/04 06:21:10;;;;;;;22.73;12.17;;;;;;;;;;739114;189;817354;-70
2022/11/04 06:23:36;;;;;;;18.00;12.47;;;;;;;;;;735052;189;917825;-69
2022/11/04 06:26:02;;;;;;;21.90;12.53;;;;;;;;;;740492;189;858928;-68
2022/11/04 06:28:28;;;;;;;18.50;12.87;;;;;;;;;;734698;189;918588;-69
2022/11/04 06:30:54;;;;;;;18.50;11.93;;;;;;;;;;734492;189;919194;-69
2022/11/04 06:33:19;;;;;;;19.10;11.57;;;;;;;;;;743673;189;716856;-69
2022/11/04 06:35:45;;;;;;;16.50;10.30;;;;;;;;;;735913;189;918983;-70
2022/11/04 06:38:11;;;;;;;17.98;11.12;;;;;;;;;;736522;188;919530;-70
2022/11/04 06:40:37;;;;;;;18.33;11.57;;;;;;;;;;736670;189;918888;-68
2022/11/04 06:43:03;;;;;;;20.80;12.30;;;;;;;;;;749661;186;918406;-70
2022/11/04 06:45:29;;;;;;;21.93;12.13;;;;;;;;;;739782;189;919391;-70
2022/11/04 06:47:54;;;;;;;20.03;11.80;;;;;;;;;;736330;188;918922;-69
2022/11/04 06:50:20;;;;;;;15.33;10.20;;;;;;;;;;743258;189;820918;-69
2022/11/04 06:52:47;;;;;;;19.83;13.20;;;;;;;;;;739721;189;822896;-69
2022/11/04 06:55:12;;;;;;;16.60;10.87;;;;;;;;;;734524;189;917836;-69
2022/11/04 06:57:38;;;;;;;18.97;11.30;;;;;;;;;;742213;189;921015;-69
2022/11/04 07:00:04;;;;;;;16.53;10.70;;;;;;;;;;736397;189;916648;-70
2022/11/04 07:02:30;;;;;;;16.60;11.10;;;;;;;;;;736469;189;919269;-69
2022/11/04 07:04:56;;;;;;;19.33;10.95;;;;;;;;;;740335;187;918874;-69
2022/11/04 07:07:22;;;;;;;19.83;11.30;;;;;;;;;;751430;183;920952;-69
2022/11/04 07:09:48;;;;;;;20.50;12.33;;;;;;;;;;740505;188;918195;-69
2022/11/04 07:12:13;;;;;;;14.10;10.60;;;;;;;;;;736078;189;917884;-70
2022/11/04 07:14:39;;;;;;;19.43;11.30;;;;;;;;;;739469;189;907652;-69
2022/11/04 07:17:05;;;;;;;17.43;11.07;;;;;;;;;;734810;189;919799;-69
2022/11/04 07:19:31;;;;;;;15.80;9.87;;;;;;;;;;734676;189;921215;-70
2022/11/04 07:21:57;;;;;;;15.73;11.80;;;;;;;;;;739636;189;922509;-69
2022/11/04 07:24:23;;;;;;;19.40;12.70;;;;;;;;;;736519;190;905025;-70
2022/11/04 07:26:48;;;;;;;18.73;11.50;;;;;;;;;;739247;188;817599;-70
2022/11/04 07:29:14;;;;;;;23.80;12.63;;;;;;;;;;739239;189;815988;-70
2022/11/04 07:31:40;;;;;;;17.30;11.85;;;;;;;;;;734825;189;920613;-69
2022/11/04 07:34:06;;;;;;;20.87;12.10;;;;;;;;;;735720;189;935538;-69
2022/11/04 07:36:32;;;;;;;16.80;11.70;;;;;;;;;;735902;189;914646;-69
2022/11/04 07:38:58;;;;;;;19.80;11.13;;;;;;;;;;740554;189;855667;-68
2022/11/04 07:41:23;;;;;;;18.27;10.80;;;;;;;;;;734941;189;918380;-70
2022/11/04 07:43:49;;;;;;;21.80;12.30;;;;;;;;;;733823;190;917723;-69
2022/11/04 07:46:15;;;;;;;21.27;12.73;;;;;;;;;;742731;185;919439;-70
2022/11/04 07:48:42;;;;;;;21.77;12.47;;;;;;;;;;736794;189;918494;-69
2022/11/04 07:51:07;;;;;;;18.13;12.30;;;;;;;;;;739015;189;927880;-69
2022/11/04 07:53:33;;;;;;;20.10;12.47;;;;;;;;;;737588;189;921008;-69
2022/11/04 07:55:59;;;;;;;18.43;10.73;;;;;;;;;;738780;189;915287;-69
2022/11/04 07:58:25;;;;;;;21.43;12.07;;;;;;;;;;738922;188;842507;-69
2022/11/04 08:00:50;;;;;;;21.77;12.80;;;;;;;;;;740787;189;926127;-68
2022/11/04 08:03:16;;;;;;;19.90;12.90;;;;;;;;;;741356;187;913759;-70
2022/11/04 08:05:42;;;;;;;23.60;13.27;;;;;;;;;;738320;186;918879;-69
2022/11/04 08:08:08;;;;;;;19.40;11.63;;;;;;;;;;740755;188;862703;-69
2022/11/04 08:10:34;;;;;;;18.97;11.73;;;;;;;;;;745438;189;916956;-70
2022/11/04 08:13:00;;;;;;;18.53;12.60;;;;;;;;;;739627;189;815920;-69
2022/11/04 08:15:28;;;;;;;20.17;12.70;;;;;;;;;;735871;189;1019771;-70
2022/11/04 08:17:52;;;;;;;17.50;11.60;;;;;;;;;;738465;189;917904;-69
2022/11/04 08:20:18;;;;;;;17.90;12.20;;;;;;;;;;738316;188;936923;-69
2022/11/04 08:22:44;;;;;;;20.52;12.70;;;;;;;;;;735150;187;943315;-69
2022/11/04 08:25:12;;;;;;;20.05;13.07;;;;;;;;;;738986;189;981325;-68
2022/11/04 08:27:36;;;;;;;25.87;13.27;;;;;;;;;;750946;185;918869;-69
2022/11/04 08:30:02;;;;;;;22.63;13.47;;;;;;;;;;737207;189;917985;-69
2022/11/04 08:32:28;;;;;;;16.92;11.98;;;;;;;;;;736540;190;919095;-69
2022/11/04 08:34:54;;;;;;;19.70;11.77;;;;;;;;;;740603;189;918853;-69
2022/11/04 08:37:19;;;;;;;18.43;12.40;;;;;;;;;;731121;190;820114;-69
2022/11/04 08:39:45;;;;;;;17.40;11.90;;;;;;;;;;732598;190;919110;-69
2022/11/04 08:42:11;;;;;;;19.70;12.70;;;;;;;;;;738472;189;817473;-69
2022/11/04 08:44:38;;;;;;;18.20;12.90;;;;;;;;;;735829;190;816923;-69
2022/11/04 08:47:03;;;;;;;20.62;12.77;;;;;;;;;;735367;189;919185;-69
2022/11/04 08:49:29;;;;;;;18.40;12.70;;;;;;;;;;740411;187;918198;-69
2022/11/04 08:51:58;;;;;;;19.17;14.10;;;;;;;;;;734923;189;919300;-69
2022/11/04 08:54:22;;;;;;;17.87;12.63;;;;;;;;;;735463;190;919948;-69
2022/11/04 08:56:47;;;;;;;22.07;13.70;;;;;;;;;;736857;189;917007;-69
2022/11/04 08:59:13;;;;;;;24.10;14.43;;;;;;;;;;742210;189;918148;-69
2022/11/04 09:01:39;;;;;;;21.67;13.10;;;;;;;;;;739366;189;916304;-70
2022/11/04 09:04:05;;;;;;;20.60;14.27;;;;;;;;;;735402;189;920700;-70
2022/11/04 09:06:30;;;;;;;22.23;14.90;;;;;;;;;;740892;189;920474;-70
2022/11/04 09:09:01;;;;;;;24.57;16.80;;;;;;;;;;735290;189;920983;-69
2022/11/04 09:11:22;;;;;;;24.47;15.73;;;;;;;;;;735843;189;923442;-70
2022/11/04 09:13:48;;;;;;;27.13;16.77;;;;;;;;;;741833;188;919454;-70
2022/11/04 09:16:14;;;;;;;31.08;18.67;;;;;;;;;;737477;189;919072;-70
2022/11/04 09:18:40;;;;;;;28.47;17.73;;;;;;;;;;735678;189;919085;-70
2022/11/04 09:21:05;;;;;;;26.13;17.67;;;;;;;;;;736179;189;918425;-69
2022/11/04 09:23:31;;;;;;;24.33;16.20;;;;;;;;;;739962;190;918420;-70
2022/11/04 09:25:57;;;;;;;27.30;18.00;;;;;;;;;;740474;189;912870;-70
2022/11/04 09:28:24;;;;;;;31.53;18.20;;;;;;;;;;737495;188;915710;-70
2022/11/04 09:30:50;;;;;;;29.90;18.67;;;;;;;;;;741990;188;917617;-70
2022/11/04 09:33:16;;;;;;;29.02;18.23;;;;;;;;;;736929;189;919268;-68
2022/11/04 09:35:41;;;;;;;39.17;19.07;;;;;;;;;;735700;190;919125;-71
2022/11/04 09:38:07;;;;;;;27.80;18.23;;;;;;;;;;737143;188;919216;-70
2022/11/04 09:40:33;;;;;;;26.63;17.90;;;;;;;;;;738849;189;919143;-71
2022/11/04 09:43:15;;;;;;;27.05;18.75;;;;;;;;;;740002;189;918486;-70
2022/11/04 09:45:40;;;;;;;27.27;18.20;;;;;;;;;;735764;187;919116;-71
2022/11/04 09:48:06;;;;;;;24.17;18.03;;;;;;;;;;742984;188;919521;-70
2022/11/04 09:50:32;;;;;;;36.00;19.70;;;;;;;;;;738198;186;920407;-70
2022/11/04 09:52:58;;;;;;;28.90;17.93;;;;;;;;;;740390;185;914805;-71
2022/11/04 09:55:24;;;;;;;30.27;18.63;;;;;;;;;;736331;186;817540;-70
2022/11/04 09:57:50;;;;;;;29.17;17.70;;;;;;;;;;739239;189;918194;-70
2022/11/04 10:00:16;;;;;;;25.80;17.73;;;;;;;;;;735378;189;918766;-71
2022/11/04 10:03:03;;;;;;;28.63;17.97;;;;;;;;;;736447;189;919035;-71
2022/11/04 10:05:29;;;;;;;24.03;17.23;;;;;;;;;;736806;189;913785;-71
2022/11/04 10:07:56;;;;;;;27.43;16.87;;;;;;;;;;740441;189;919308;-71
2022/11/04 10:10:33;;;;;;;28.53;17.97;;;;;;;;;;741272;188;955403;-71
2022/11/04 10:13:01;;;;;;;28.03;18.20;;;;;;;;;;738535;189;897769;-71
2022/11/04 10:15:42;;;;;;;27.73;17.80;;;;;;;;;;742928;188;917191;-70
2022/11/04 10:18:09;;;;;;;28.60;18.97;;;;;;;;;;732443;186;917650;-71
2022/11/04 10:20:38;;;;;;;26.53;17.83;;;;;;;;;;739657;188;918699;-70
2022/11/04 10:23:05;;;;;;;27.93;17.00;;;;;;;;;;746219;187;918800;-71
2022/11/04 10:25:32;;;;;;;24.67;16.57;;;;;;;;;;739449;188;913714;-72
2022/11/04 10:27:58;;;;;;;29.12;17.35;;;;;;;;;;735308;190;918948;-70
2022/11/04 10:30:24;;;;;;;26.27;17.67;;;;;;;;;;741499;190;942578;-71
2022/11/04 10:32:57;;;;;;;26.90;17.07;;;;;;;;;;734981;189;926320;-70
2022/11/04 10:35:27;;;;;;;31.30;17.30;;;;;;;;;;735399;189;918523;-70
2022/11/04 10:37:53;;;;;;;29.00;17.07;;;;;;;;;;734478;189;921791;-70
2022/11/04 10:40:20;;;;;;;26.70;16.27;;;;;;;;;;742294;189;818039;-70
2022/11/04 10:42:46;;;;;;;26.50;16.73;;;;;;;;;;740385;189;919765;-70
2022/11/04 10:45:12;;;;;;;26.58;15.68;;;;;;;;;;737803;189;897369;-71
2022/11/04 10:47:37;;;;;;;28.80;18.77;;;;;;;;;;737096;189;816097;-70
2022/11/04 10:50:09;;;;;;;27.73;17.43;;;;;;;;;;742449;188;815095;-70
2022/11/04 10:52:36;;;;;;;24.63;17.10;;;;;;;;;;738701;189;907549;-70
2022/11/04 10:55:01;;;;;;;26.52;17.87;;;;;;;;;;737364;188;913140;-70
2022/11/04 10:57:27;;;;;;;27.97;16.17;;;;;;;;;;740558;189;917494;-70
2022/11/04 10:59:53;;;;;;;25.60;16.87;;;;;;;;;;735927;189;915496;-70
2022/11/04 11:02:22;;;;;;;26.57;18.03;;;;;;;;;;734409;189;919152;-72
2022/11/04 11:04:48;;;;;;;29.40;16.63;;;;;;;;;;733316;189;919702;-70
2022/11/04 11:07:18;;;;;;;25.83;17.73;;;;;;;;;;740467;189;816793;-71
2022/11/04 11:09:59;;;;;;;24.73;16.40;;;;;;;;;;735981;189;918883;-70
2022/11/04 11:12:27;;;;;;;25.23;16.30;;;;;;;;;;735125;189;919018;-70
2022/11/04 11:14:47;;;;;;;24.93;15.07;;;;;;;;;;735694;189;916336;-70
2022/11/04 11:17:14;;;;;;;25.60;15.33;;;;;;;;;;728249;191;816829;-70
2022/11/04 11:19:58;;;;;;;29.13;15.33;;;;;;;;;;733473;187;920925;-71
2022/11/04 11:22:30;;;;;;;25.10;15.70;;;;;;;;;;739505;188;919277;-71
2022/11/04 11:24:54;;;;;;;26.20;15.77;;;;;;;;;;738802;188;920895;-70
2022/11/04 11:27:21;;;;;;;23.47;16.10;;;;;;;;;;738217;188;823931;-70
2022/11/04 11:29:52;;;;;;;28.70;16.07;;;;;;;;;;740837;189;917304;-71
2022/11/04 11:32:17;;;;;;;28.13;18.20;;;;;;;;;;740348;188;918648;-70
2022/11/04 11:34:46;;;;;;;25.50;16.83;;;;;;;;;;736880;189;816824;-70
2022/11/04 11:37:09;;;;;;;32.33;18.50;;;;;;;;;;741723;189;920236;-70
2022/11/04 11:39:35;;;;;;;31.00;19.30;;;;;;;;;;739919;188;919511;-70
2022/11/04 11:42:01;;;;;;;36.50;20.27;;;;;;;;;;737099;189;913412;-71
2022/11/04 11:44:31;;;;;;;31.52;19.45;;;;;;;;;;735749;189;919715;-70
2022/11/04 11:46:55;;;;;;;31.83;19.07;;;;;;;;;;749366;188;817208;-71
2022/11/04 11:49:21;;;;;;;30.80;18.10;;;;;;;;;;736401;188;917682;-71
2022/11/04 11:51:49;;;;;;;27.80;18.90;;;;;;;;;;739228;189;922685;-70
2022/11/04 11:54:14;;;;;;;29.93;17.13;;;;;;;;;;741438;190;910819;-71
2022/11/04 11:56:42;;;;;;;32.77;18.70;;;;;;;;;;736115;189;916006;-71
2022/11/04 11:59:08;;;;;;;29.30;18.43;;;;;;;;;;734030;190;917554;-70
2022/11/04 12:01:31;;;;;;;27.73;18.35;;;;;;;;;;740899;189;867984;-71
2022/11/04 12:03:59;;;;;;;24.90;17.00;;;;;;;;;;734276;190;917625;-71
2022/11/04 12:06:29;;;;;;;28.13;18.37;;;;;;;;;;735447;188;918990;-70
2022/11/04 12:09:10;;;;;;;25.20;16.37;;;;;;;;;;738058;188;917403;-71
2022/11/04 12:11:39;;;;;;;26.90;17.23;;;;;;;;;;738337;189;896519;-71
2022/11/04 12:14:05;;;;;;;28.57;17.97;;;;;;;;;;742373;189;913116;-70
2022/11/04 12:16:31;;;;;;;32.13;19.40;;;;;;;;;;738821;188;915587;-70
2022/11/04 12:19:12;;;;;;;25.17;16.20;;;;;;;;;;738597;189;919650;-70
2022/11/04 12:21:53;;;;;;;27.10;18.10;;;;;;;;;;738571;188;822271;-69
2022/11/04 12:24:26;;;;;;;31.73;18.37;;;;;;;;;;734418;189;917812;-70
2022/11/04 12:26:59;;;;;;;71.23;39.80;;;;;;;;;;735014;189;918246;-69
2022/11/04 12:29:44;;;;;;;271.70;179.23;;;;;;;;;;736325;189;929116;-72
2022/11/04 12:32:11;;;;;;;91.93;53.23;;;;;;;;;;733799;191;919453;-70
2022/11/04 12:34:42;;;;;;;44.60;28.20;;;;;;;;;;744818;188;919710;-71
2022/11/04 12:37:11;;;;;;;32.90;19.87;;;;;;;;;;736262;188;921376;-70
2022/11/04 12:39:51;;;;;;;64.77;39.83;;;;;;;;;;737968;187;920288;-70
2022/11/04 12:42:18;;;;;;;39.50;21.63;;;;;;;;;;734213;189;1017670;-70
2022/11/04 12:44:47;;;;;;;243.83;148.27;;;;;;;;;;741842;188;919490;-69
2022/11/04 12:47:14;;;;;;;103.47;57.90;;;;;;;;;;739629;188;919237;-70
2022/11/04 12:49:45;;;;;;;34.93;20.63;;;;;;;;;;735472;188;918992;-70
2022/11/04 12:52:29;;;;;;;159.10;85.47;;;;;;;;;;741238;189;715125;-69
2022/11/04 12:54:57;;;;;;;140.87;88.23;;;;;;;;;;733645;189;916006;-69
2022/11/04 12:57:23;;;;;;;353.20;201.57;;;;;;;;;;743187;189;892558;-69
2022/11/04 12:59:51;;;;;;;240.70;124.95;;;;;;;;;;740159;188;870298;-68
2022/11/04 13:02:20;;;;;;;149.40;73.27;;;;;;;;;;739024;189;919641;-68
2022/11/04 13:04:46;;;;;;;231.23;122.83;;;;;;;;;;730847;189;920473;-68
2022/11/04 13:07:13;;;;;;;33.70;21.03;;;;;;;;;;739406;189;914076;-69
2022/11/04 13:09:43;;;;;;;64.97;34.93;;;;;;;;;;735111;189;921633;-68
2022/11/04 13:12:11;;;;;;;32.60;20.60;;;;;;;;;;737405;189;903192;-69
2022/11/04 13:14:43;;;;;;;30.13;18.70;;;;;;;;;;738331;188;919953;-68
2022/11/04 13:17:09;;;;;;;26.80;17.48;;;;;;;;;;737007;189;1021055;-69
2022/11/04 13:19:37;;;;;;;49.10;31.53;;;;;;;;;;735743;189;919287;-69
2022/11/04 13:22:03;;;;;;;49.17;27.93;;;;;;;;;;735209;189;918684;-68
2022/11/04 13:24:30;;;;;;;37.07;22.20;;;;;;;;;;734570;186;918798;-68
2022/11/04 13:26:55;;;;;;;24.70;17.90;;;;;;;;;;738243;188;920299;-69
2022/11/04 13:29:21;;;;;;;23.27;14.20;;;;;;;;;;737068;189;918548;-69
2022/11/04 13:31:53;;;;;;;31.73;20.33;;;;;;;;;;733856;190;1042263;-69
2022/11/04 13:34:32;;;;;;;195.63;130.17;;;;;;;;;;739752;189;919469;-69
2022/11/04 13:37:15;;;;;;;87.87;51.17;;;;;;;;;;744866;187;799640;-69
2022/11/04 13:39:42;;;;;;;79.57;50.57;;;;;;;;;;735917;189;917859;-69
2022/11/04 13:42:10;;;;;;;39.50;26.57;;;;;;;;;;741312;187;915006;-70
2022/11/04 13:44:37;;;;;;;25.10;15.05;;;;;;;;;;736353;189;916367;-69
2022/11/04 13:47:03;;;;;;;42.30;24.97;;;;;;;;;;737467;189;809164;-69
2022/11/04 13:49:32;;;;;;;29.37;17.37;;;;;;;;;;741777;189;818327;-70
2022/11/04 13:52:00;;;;;;;22.93;15.50;;;;;;;;;;739053;189;806289;-70
2022/11/04 13:54:27;;;;;;;21.40;15.57;;;;;;;;;;740010;189;728143;-69
2022/11/04 13:56:59;;;;;;;23.30;14.50;;;;;;;;;;743423;187;907615;-70
2022/11/04 13:59:26;;;;;;;24.20;15.27;;;;;;;;;;744221;188;805894;-70
2022/11/04 14:01:58;;;;;;;19.50;13.50;;;;;;;;;;737759;187;816292;-69
2022/11/04 14:04:25;;;;;;;17.40;11.20;;;;;;;;;;740067;188;816177;-69
2022/11/04 14:06:51;;;;;;;17.43;13.03;;;;;;;;;;738751;187;888153;-69
2022/11/04 14:09:22;;;;;;;17.07;12.40;;;;;;;;;;743348;186;919375;-69
2022/11/04 14:11:54;;;;;;;26.23;16.93;;;;;;;;;;736382;185;822154;-69
2022/11/04 14:14:20;;;;;;;22.30;14.60;;;;;;;;;;735841;189;918353;-69
2022/11/04 14:16:46;;;;;;;25.27;15.23;;;;;;;;;;737736;189;820095;-69
2022/11/04 14:19:17;;;;;;;25.13;18.30;;;;;;;;;;737070;188;932495;-68
2022/11/04 14:21:49;;;;;;;23.60;15.67;;;;;;;;;;737257;188;816560;-69
2022/11/04 14:24:15;;;;;;;29.42;18.48;;;;;;;;;;735801;189;917038;-70
2022/11/04 14:26:42;;;;;;;27.60;18.63;;;;;;;;;;735016;189;917294;-69
2022/11/04 14:29:07;;;;;;;29.43;19.20;;;;;;;;;;734596;190;817501;-70
2022/11/04 14:31:36;;;;;;;36.60;25.00;;;;;;;;;;733759;188;918721;-69
2022/11/04 14:34:02;;;;;;;26.60;18.57;;;;;;;;;;736975;189;816341;-70
2022/11/04 14:36:30;;;;;;;31.33;21.17;;;;;;;;;;742356;188;840820;-70
2022/11/04 14:39:01;;;;;;;29.33;24.00;;;;;;;;;;736704;189;802636;-70
2022/11/04 14:41:30;;;;;;;48.50;32.30;;;;;;;;;;735842;186;816996;-70